sensor_id;sensor_type;location;lat;lon;timestamp;temperature;humidity
10964;DHT22;5534;48.784;9.190;2024-03-02T00:01:14;10.10;99.90
10964;DHT22;5534;48.784;9.190;2024-03-02T00:03:40;10.10;99.90
10964;DHT22;5534;48.784;9.190;2024-03-02T00:06:08;9.90;99.90
10964;DHT22;5534;48.784;9.190;2024-03-02T00:08:33;9.80;99.90
10964;DHT22;5534;48.784;9.190;2024-03-02T00:11:00;9.80;99.90
10964;DHT22;5534;48.784;9.190;2024-03-02T00:13:29;9.90;99.90
10964;DHT22;5534;48.784;9.190;2024-03-02T00:15:56;9.70;99.90
10964;DHT22;5534;48.784;9.190;2024-03-02T00:18:33;9.50;99.90
10964;DHT22;5534;48.784;9.190;2024-03-02T00:21:00;9.20;99.90
10964;DHT22;5534;48.784;9.190;2024-03-02T00:23:33;9.50;99.90
10964;DHT22;5534;48.784;9.190;2024-03-02T00:25:59;9.40;99.90
10964;DHT22;5534;48.784;9.190;2024-03-02T00:28:33;9.50;99.90
10964;DHT22;5534;48.784;9.190;2024-03-02T00:31:05;9.40;99.90
10964;DHT22;5534;48.784;9.190;2024-03-02T00:33:48;9.40;99.90
10964;DHT22;5534;48.784;9.190;2024-03-02T00:36:15;9.60;99.90
10964;DHT22;5534;48.784;9.190;2024-03-02T00:38:47;9.80;99.90
10964;DHT22;5534;48.784;9.190;2024-03-02T00:41:21;9.70;99.90
10964;DHT22;5534;48.784;9.190;2024-03-02T00:43:58;9.60;99.90
10964;DHT22;5534;48.784;9.190;2024-03-02T00:46:24;9.70;99.90
10964;DHT22;5534;48.784;9.190;2024-03-02T00:48:53;9.60;99.90
10964;DHT22;5534;48.784;9.190;2024-03-02T00:51:20;9.50;99.90
10964;DHT22;5534;48.784;9.190;2024-03-02T00:53:46;9.40;99.90
10964;DHT22;5534;48.784;9.190;2024-03-02T00:56:12;9.30;99.90
10964;DHT22;5534;48.784;9.190;2024-03-02T00:58:38;9.40;99.90
10964;DHT22;5534;48.784;9.190;2024-03-02T01:01:04;9.50;99.90
10964;DHT22;5534;48.784;9.190;2024-03-02T01:03:31;9.60;99.90
10964;DHT22;5534;48.784;9.190;2024-03-02T01:05:57;9.70;99.90
10964;DHT22;5534;48.784;9.190;2024-03-02T01:08:24;9.40;99.90
10964;DHT22;5534;48.784;9.190;2024-03-02T01:10:49;9.50;99.90
10964;DHT22;5534;48.784;9.190;2024-03-02T01:13:15;9.30;99.90
10964;DHT22;5534;48.784;9.190;2024-03-02T01:15:41;9.10;99.90
10964;DHT22;5534;48.784;9.190;2024-03-02T01:18:06;9.20;99.90
10964;DHT22;5534;48.784;9.190;2024-03-02T01:20:32;9.50;99.90
10964;DHT22;5534;48.784;9.190;2024-03-02T01:22:57;9.60;99.90
10964;DHT22;5534;48.784;9.190;2024-03-02T01:25:23;9.70;99.90
10964;DHT22;5534;48.784;9.190;2024-03-02T01:27:49;9.80;99.90
10964;DHT22;5534;48.784;9.190;2024-03-02T01:30:14;9.80;99.90
10964;DHT22;5534;48.784;9.190;2024-03-02T01:32:40;9.80;99.90
10964;DHT22;5534;48.784;9.190;2024-03-02T01:35:06;9.80;99.90
10964;DHT22;5534;48.784;9.190;2024-03-02T01:37:32;9.70;99.90
10964;DHT22;5534;48.784;9.190;2024-03-02T01:39:58;9.70;99.90
10964;DHT22;5534;48.784;9.190;2024-03-02T01:42:24;9.60;99.90
10964;DHT22;5534;48.784;9.190;2024-03-02T01:44:50;9.20;99.90
10964;DHT22;5534;48.784;9.190;2024-03-02T01:47:16;9.10;99.90
10964;DHT22;5534;48.784;9.190;2024-03-02T01:49:41;9.00;99.90
10964;DHT22;5534;48.784;9.190;2024-03-02T01:52:07;9.30;99.90
10964;DHT22;5534;48.784;9.190;2024-03-02T01:54:33;9.20;99.90
10964;DHT22;5534;48.784;9.190;2024-03-02T01:56:59;8.80;99.90
10964;DHT22;5534;48.784;9.190;2024-03-02T01:59:25;8.90;99.90
10964;DHT22;5534;48.784;9.190;2024-03-02T02:01:50;9.00;99.90
10964;DHT22;5534;48.784;9.190;2024-03-02T02:04:16;9.20;99.90
10964;DHT22;5534;48.784;9.190;2024-03-02T02:06:44;9.20;99.90
10964;DHT22;5534;48.784;9.190;2024-03-02T02:09:10;9.00;99.90
10964;DHT22;5534;48.784;9.190;2024-03-02T02:11:35;9.00;99.90
10964;DHT22;5534;48.784;9.190;2024-03-02T02:14:01;9.10;99.90
10964;DHT22;5534;48.784;9.190;2024-03-02T02:16:27;9.00;99.90
10964;DHT22;5534;48.784;9.190;2024-03-02T02:18:52;9.00;99.90
10964;DHT22;5534;48.784;9.190;2024-03-02T02:21:23;9.20;99.90
10964;DHT22;5534;48.784;9.190;2024-03-02T02:23:48;9.20;99.90
10964;DHT22;5534;48.784;9.190;2024-03-02T02:26:18;9.20;99.90
10964;DHT22;5534;48.784;9.190;2024-03-02T02:28:44;9.20;99.90
10964;DHT22;5534;48.784;9.190;2024-03-02T02:31:13;9.20;99.90
10964;DHT22;5534;48.784;9.190;2024-03-02T02:33:42;9.10;99.90
10964;DHT22;5534;48.784;9.190;2024-03-02T02:36:08;9.10;99.90
10964;DHT22;5534;48.784;9.190;2024-03-02T02:38:38;8.90;99.90
10964;DHT22;5534;48.784;9.190;2024-03-02T02:41:05;9.00;99.90
10964;DHT22;5534;48.784;9.190;2024-03-02T02:43:31;9.10;99.90
10964;DHT22;5534;48.784;9.190;2024-03-02T02:45:56;8.90;99.90
10964;DHT22;5534;48.784;9.190;2024-03-02T02:48:22;8.90;99.90
10964;DHT22;5534;48.784;9.190;2024-03-02T02:50:48;8.90;99.90
10964;DHT22;5534;48.784;9.190;2024-03-02T02:53:13;9.00;99.90
10964;DHT22;5534;48.784;9.190;2024-03-02T02:55:41;9.10;99.90
10964;DHT22;5534;48.784;9.190;2024-03-02T02:58:09;9.10;99.90
10964;DHT22;5534;48.784;9.190;2024-03-02T03:00:34;8.70;99.90
10964;DHT22;5534;48.784;9.190;2024-03-02T03:03:02;8.90;99.90
10964;DHT22;5534;48.784;9.190;2024-03-02T03:05:27;8.90;99.90
10964;DHT22;5534;48.784;9.190;2024-03-02T03:07:53;8.70;99.90
10964;DHT22;5534;48.784;9.190;2024-03-02T03:10:19;8.90;99.90
10964;DHT22;5534;48.784;9.190;2024-03-02T03:12:47;8.90;99.90
10964;DHT22;5534;48.784;9.190;2024-03-02T03:15:13;8.60;99.90
10964;DHT22;5534;48.784;9.190;2024-03-02T03:17:40;8.60;99.90
10964;DHT22;5534;48.784;9.190;2024-03-02T03:20:07;8.70;99.90
10964;DHT22;5534;48.784;9.190;2024-03-02T03:22:35;8.80;99.90
10964;DHT22;5534;48.784;9.190;2024-03-02T03:25:01;8.80;99.90
10964;DHT22;5534;48.784;9.190;2024-03-02T03:27:27;8.70;99.90
10964;DHT22;5534;48.784;9.190;2024-03-02T03:29:52;8.80;99.90
10964;DHT22;5534;48.784;9.190;2024-03-02T03:32:18;8.70;99.90
10964;DHT22;5534;48.784;9.190;2024-03-02T03:34:43;8.40;99.90
10964;DHT22;5534;48.784;9.190;2024-03-02T03:37:09;8.50;99.90
10964;DHT22;5534;48.784;9.190;2024-03-02T03:39:35;8.60;99.90
10964;DHT22;5534;48.784;9.190;2024-03-02T03:42:04;8.60;99.90
10964;DHT22;5534;48.784;9.190;2024-03-02T03:44:29;8.40;99.90
10964;DHT22;5534;48.784;9.190;2024-03-02T03:46:55;8.30;99.90
10964;DHT22;5534;48.784;9.190;2024-03-02T03:49:20;8.30;99.90
10964;DHT22;5534;48.784;9.190;2024-03-02T03:51:46;8.20;99.90
10964;DHT22;5534;48.784;9.190;2024-03-02T03:54:12;8.40;99.90
10964;DHT22;5534;48.784;9.190;2024-03-02T03:56:37;8.60;99.90
10964;DHT22;5534;48.784;9.190;2024-03-02T03:59:03;8.60;99.90
10964;DHT22;5534;48.784;9.190;2024-03-02T04:01:30;8.60;99.90
10964;DHT22;5534;48.784;9.190;2024-03-02T04:03:57;8.60;99.90
10964;DHT22;5534;48.784;9.190;2024-03-02T04:06:23;8.60;99.90
10964;DHT22;5534;48.784;9.190;2024-03-02T04:08:48;8.60;99.90
10964;DHT22;5534;48.784;9.190;2024-03-02T04:11:14;8.70;99.90
10964;DHT22;5534;48.784;9.190;2024-03-02T04:13:40;8.60;99.90
10964;DHT22;5534;48.784;9.190;2024-03-02T04:16:05;8.30;99.90
10964;DHT22;5534;48.784;9.190;2024-03-02T04:18:31;8.60;99.90
10964;DHT22;5534;48.784;9.190;2024-03-02T04:21:00;8.60;99.90
10964;DHT22;5534;48.784;9.190;2024-03-02T04:23:29;8.60;99.90
10964;DHT22;5534;48.784;9.190;2024-03-02T04:25:54;8.60;99.90
10964;DHT22;5534;48.784;9.190;2024-03-02T04:28:20;8.60;99.90
10964;DHT22;5534;48.784;9.190;2024-03-02T04:30:45;8.60;99.90
10964;DHT22;5534;48.784;9.190;2024-03-02T04:33:11;8.50;99.90
10964;DHT22;5534;48.784;9.190;2024-03-02T04:35:37;8.60;99.90
10964;DHT22;5534;48.784;9.190;2024-03-02T04:38:02;8.50;99.90
10964;DHT22;5534;48.784;9.190;2024-03-02T04:40:28;8.50;99.90
10964;DHT22;5534;48.784;9.190;2024-03-02T04:42:53;8.30;99.90
10964;DHT22;5534;48.784;9.190;2024-03-02T04:45:19;8.00;99.90
10964;DHT22;5534;48.784;9.190;2024-03-02T04:47:45;8.10;99.90
10964;DHT22;5534;48.784;9.190;2024-03-02T04:50:10;8.20;99.90
10964;DHT22;5534;48.784;9.190;2024-03-02T04:52:36;8.30;99.90
10964;DHT22;5534;48.784;9.190;2024-03-02T04:55:03;8.40;99.90
10964;DHT22;5534;48.784;9.190;2024-03-02T04:57:42;8.40;99.90
10964;DHT22;5534;48.784;9.190;2024-03-02T05:00:08;8.50;99.90
10964;DHT22;5534;48.784;9.190;2024-03-02T05:02:34;8.50;99.90
10964;DHT22;5534;48.784;9.190;2024-03-02T05:05:00;8.40;99.90
10964;DHT22;5534;48.784;9.190;2024-03-02T05:07:26;8.30;99.90
10964;DHT22;5534;48.784;9.190;2024-03-02T05:09:51;8.30;99.90
10964;DHT22;5534;48.784;9.190;2024-03-02T05:12:17;8.40;99.90
10964;DHT22;5534;48.784;9.190;2024-03-02T05:15:06;8.40;99.90
10964;DHT22;5534;48.784;9.190;2024-03-02T05:17:33;8.30;99.90
10964;DHT22;5534;48.784;9.190;2024-03-02T05:19:58;8.20;99.90
10964;DHT22;5534;48.784;9.190;2024-03-02T05:22:24;8.30;99.90
10964;DHT22;5534;48.784;9.190;2024-03-02T05:24:50;8.20;99.90
10964;DHT22;5534;48.784;9.190;2024-03-02T05:27:15;8.20;99.90
10964;DHT22;5534;48.784;9.190;2024-03-02T05:29:41;8.20;99.90
10964;DHT22;5534;48.784;9.190;2024-03-02T05:32:06;8.20;99.90
10964;DHT22;5534;48.784;9.190;2024-03-02T05:34:32;8.30;99.90
10964;DHT22;5534;48.784;9.190;2024-03-02T05:37:01;8.30;99.90
10964;DHT22;5534;48.784;9.190;2024-03-02T05:39:26;8.30;99.90
10964;DHT22;5534;48.784;9.190;2024-03-02T05:41:52;8.30;99.90
10964;DHT22;5534;48.784;9.190;2024-03-02T05:44:17;8.20;99.90
10964;DHT22;5534;48.784;9.190;2024-03-02T05:46:44;8.20;99.90
10964;DHT22;5534;48.784;9.190;2024-03-02T05:49:10;8.00;99.90
10964;DHT22;5534;48.784;9.190;2024-03-02T05:51:35;8.10;99.90
10964;DHT22;5534;48.784;9.190;2024-03-02T05:54:01;8.10;99.90
10964;DHT22;5534;48.784;9.190;2024-03-02T05:56:27;7.90;99.90
10964;DHT22;5534;48.784;9.190;2024-03-02T05:58:53;8.00;99.90
10964;DHT22;5534;48.784;9.190;2024-03-02T06:01:33;8.50;99.90
10964;DHT22;5534;48.784;9.190;2024-03-02T06:03:58;8.10;99.90
10964;DHT22;5534;48.784;9.190;2024-03-02T06:06:24;8.30;99.90
10964;DHT22;5534;48.784;9.190;2024-03-02T06:08:50;8.20;99.90
10964;DHT22;5534;48.784;9.190;2024-03-02T06:11:15;8.20;99.90
10964;DHT22;5534;48.784;9.190;2024-03-02T06:13:41;8.30;99.90
10964;DHT22;5534;48.784;9.190;2024-03-02T06:16:07;8.30;99.90
10964;DHT22;5534;48.784;9.190;2024-03-02T06:18:34;8.30;99.90
10964;DHT22;5534;48.784;9.190;2024-03-02T06:20:59;8.20;99.90
10964;DHT22;5534;48.784;9.190;2024-03-02T06:23:26;8.30;99.90
10964;DHT22;5534;48.784;9.190;2024-03-02T06:25:52;8.30;99.90
10964;DHT22;5534;48.784;9.190;2024-03-02T06:28:18;8.30;99.90
10964;DHT22;5534;48.784;9.190;2024-03-02T06:30:43;8.20;99.90
10964;DHT22;5534;48.784;9.190;2024-03-02T06:33:09;7.90;99.90
10964;DHT22;5534;48.784;9.190;2024-03-02T06:35:35;8.00;99.90
10964;DHT22;5534;48.784;9.190;2024-03-02T06:38:01;7.90;99.90
10964;DHT22;5534;48.784;9.190;2024-03-02T06:40:26;7.80;99.90
10964;DHT22;5534;48.784;9.190;2024-03-02T06:42:52;8.10;99.90
10964;DHT22;5534;48.784;9.190;2024-03-02T06:45:18;8.30;99.90
10964;DHT22;5534;48.784;9.190;2024-03-02T06:47:43;8.40;99.90
10964;DHT22;5534;48.784;9.190;2024-03-02T06:50:09;8.50;99.90
10964;DHT22;5534;48.784;9.190;2024-03-02T06:52:35;8.60;99.90
10964;DHT22;5534;48.784;9.190;2024-03-02T06:55:02;8.70;99.90
10964;DHT22;5534;48.784;9.190;2024-03-02T06:57:27;8.70;99.90
10964;DHT22;5534;48.784;9.190;2024-03-02T06:59:53;8.80;99.90
10964;DHT22;5534;48.784;9.190;2024-03-02T07:02:22;8.80;99.90
10964;DHT22;5534;48.784;9.190;2024-03-02T07:04:48;8.80;99.90
10964;DHT22;5534;48.784;9.190;2024-03-02T07:07:15;8.80;99.90
10964;DHT22;5534;48.784;9.190;2024-03-02T07:09:40;8.80;99.90
10964;DHT22;5534;48.784;9.190;2024-03-02T07:12:06;8.90;99.90
10964;DHT22;5534;48.784;9.190;2024-03-02T07:14:32;8.90;99.90
10964;DHT22;5534;48.784;9.190;2024-03-02T07:17:16;9.00;99.90
10964;DHT22;5534;48.784;9.190;2024-03-02T07:19:42;9.10;99.90
10964;DHT22;5534;48.784;9.190;2024-03-02T07:22:07;9.10;99.90
10964;DHT22;5534;48.784;9.190;2024-03-02T07:24:43;9.10;99.90
10964;DHT22;5534;48.784;9.190;2024-03-02T07:27:12;9.10;99.90
10964;DHT22;5534;48.784;9.190;2024-03-02T07:29:38;9.20;99.90
10964;DHT22;5534;48.784;9.190;2024-03-02T07:32:07;9.30;99.90
10964;DHT22;5534;48.784;9.190;2024-03-02T07:34:33;9.30;99.90
10964;DHT22;5534;48.784;9.190;2024-03-02T07:36:59;9.30;99.90
10964;DHT22;5534;48.784;9.190;2024-03-02T07:39:25;9.30;99.90
10964;DHT22;5534;48.784;9.190;2024-03-02T07:41:51;9.40;99.90
10964;DHT22;5534;48.784;9.190;2024-03-02T07:44:17;9.40;99.90
10964;DHT22;5534;48.784;9.190;2024-03-02T07:46:45;9.40;99.90
10964;DHT22;5534;48.784;9.190;2024-03-02T07:49:20;9.50;99.90
10964;DHT22;5534;48.784;9.190;2024-03-02T07:51:46;9.30;99.90
10964;DHT22;5534;48.784;9.190;2024-03-02T07:54:11;9.00;99.90
10964;DHT22;5534;48.784;9.190;2024-03-02T07:56:40;9.10;99.90
10964;DHT22;5534;48.784;9.190;2024-03-02T07:59:06;9.10;99.90
10964;DHT22;5534;48.784;9.190;2024-03-02T08:01:33;9.10;99.90
10964;DHT22;5534;48.784;9.190;2024-03-02T08:03:59;9.30;99.90
10964;DHT22;5534;48.784;9.190;2024-03-02T08:06:28;9.30;99.90
10964;DHT22;5534;48.784;9.190;2024-03-02T08:08:54;9.50;99.90
10964;DHT22;5534;48.784;9.190;2024-03-02T08:11:20;9.60;99.90
10964;DHT22;5534;48.784;9.190;2024-03-02T08:13:46;9.00;99.90
10964;DHT22;5534;48.784;9.190;2024-03-02T08:16:12;9.20;99.90
10964;DHT22;5534;48.784;9.190;2024-03-02T08:18:38;9.40;99.90
10964;DHT22;5534;48.784;9.190;2024-03-02T08:21:04;9.10;99.90
10964;DHT22;5534;48.784;9.190;2024-03-02T08:23:30;9.30;99.90
10964;DHT22;5534;48.784;9.190;2024-03-02T08:25:56;9.40;99.90
10964;DHT22;5534;48.784;9.190;2024-03-02T08:28:24;9.40;99.90
10964;DHT22;5534;48.784;9.190;2024-03-02T08:30:50;9.20;99.90
10964;DHT22;5534;48.784;9.190;2024-03-02T08:33:15;9.10;99.90
10964;DHT22;5534;48.784;9.190;2024-03-02T08:35:42;9.10;99.90
10964;DHT22;5534;48.784;9.190;2024-03-02T08:38:08;9.10;99.90
10964;DHT22;5534;48.784;9.190;2024-03-02T08:40:34;9.30;99.90
10964;DHT22;5534;48.784;9.190;2024-03-02T08:42:59;9.50;99.90
10964;DHT22;5534;48.784;9.190;2024-03-02T08:45:25;9.50;99.90
10964;DHT22;5534;48.784;9.190;2024-03-02T08:47:51;9.60;99.90
10964;DHT22;5534;48.784;9.190;2024-03-02T08:50:16;9.90;99.90
10964;DHT22;5534;48.784;9.190;2024-03-02T08:52:42;10.00;99.90
10964;DHT22;5534;48.784;9.190;2024-03-02T08:55:08;10.00;99.90
10964;DHT22;5534;48.784;9.190;2024-03-02T08:57:35;10.10;99.90
10964;DHT22;5534;48.784;9.190;2024-03-02T09:00:00;10.20;99.90
10964;DHT22;5534;48.784;9.190;2024-03-02T09:02:26;10.20;99.90
10964;DHT22;5534;48.784;9.190;2024-03-02T09:04:52;10.20;99.90
10964;DHT22;5534;48.784;9.190;2024-03-02T09:07:18;10.00;99.90
10964;DHT22;5534;48.784;9.190;2024-03-02T09:09:44;10.00;99.90
10964;DHT22;5534;48.784;9.190;2024-03-02T09:12:09;10.30;99.90
10964;DHT22;5534;48.784;9.190;2024-03-02T09:14:36;10.40;99.90
10964;DHT22;5534;48.784;9.190;2024-03-02T09:17:02;10.50;99.90
10964;DHT22;5534;48.784;9.190;2024-03-02T09:19:29;10.50;99.90
10964;DHT22;5534;48.784;9.190;2024-03-02T09:21:55;10.50;99.90
10964;DHT22;5534;48.784;9.190;2024-03-02T09:24:21;10.50;99.90
10964;DHT22;5534;48.784;9.190;2024-03-02T09:26:47;10.50;99.90
10964;DHT22;5534;48.784;9.190;2024-03-02T09:29:13;10.50;99.90
10964;DHT22;5534;48.784;9.190;2024-03-02T09:31:45;10.30;99.90
10964;DHT22;5534;48.784;9.190;2024-03-02T09:34:12;10.30;99.90
10964;DHT22;5534;48.784;9.190;2024-03-02T09:36:39;10.60;99.90
10964;DHT22;5534;48.784;9.190;2024-03-02T09:39:08;10.70;99.90
10964;DHT22;5534;48.784;9.190;2024-03-02T09:41:38;11.00;99.90
10964;DHT22;5534;48.784;9.190;2024-03-02T09:44:05;11.10;99.90
10964;DHT22;5534;48.784;9.190;2024-03-02T09:46:31;11.40;99.90
10964;DHT22;5534;48.784;9.190;2024-03-02T09:48:57;11.50;99.90
10964;DHT22;5534;48.784;9.190;2024-03-02T09:51:23;11.70;99.90
10964;DHT22;5534;48.784;9.190;2024-03-02T09:53:49;11.80;99.90
10964;DHT22;5534;48.784;9.190;2024-03-02T09:56:15;11.70;99.90
10964;DHT22;5534;48.784;9.190;2024-03-02T09:58:44;11.70;99.90
10964;DHT22;5534;48.784;9.190;2024-03-02T10:01:10;11.70;99.90
10964;DHT22;5534;48.784;9.190;2024-03-02T10:03:39;11.70;99.90
10964;DHT22;5534;48.784;9.190;2024-03-02T10:06:23;12.10;99.90
10964;DHT22;5534;48.784;9.190;2024-03-02T10:08:49;12.10;99.90
10964;DHT22;5534;48.784;9.190;2024-03-02T10:11:32;12.20;99.90
10964;DHT22;5534;48.784;9.190;2024-03-02T10:14:11;12.20;99.90
10964;DHT22;5534;48.784;9.190;2024-03-02T10:16:41;12.30;99.90
10964;DHT22;5534;48.784;9.190;2024-03-02T10:19:20;12.50;99.90
10964;DHT22;5534;48.784;9.190;2024-03-02T10:21:50;12.60;99.90
10964;DHT22;5534;48.784;9.190;2024-03-02T10:24:18;12.60;99.90
10964;DHT22;5534;48.784;9.190;2024-03-02T10:26:44;12.70;99.90
10964;DHT22;5534;48.784;9.190;2024-03-02T10:29:10;12.70;99.90
10964;DHT22;5534;48.784;9.190;2024-03-02T10:31:39;12.70;99.90
10964;DHT22;5534;48.784;9.190;2024-03-02T10:34:06;12.80;99.90
10964;DHT22;5534;48.784;9.190;2024-03-02T10:36:35;12.80;99.90
10964;DHT22;5534;48.784;9.190;2024-03-02T10:39:04;12.70;99.90
10964;DHT22;5534;48.784;9.190;2024-03-02T10:41:39;12.90;99.90
10964;DHT22;5534;48.784;9.190;2024-03-02T10:44:10;13.00;99.90
10964;DHT22;5534;48.784;9.190;2024-03-02T10:46:40;13.20;99.90
10964;DHT22;5534;48.784;9.190;2024-03-02T10:49:06;13.20;99.90
10964;DHT22;5534;48.784;9.190;2024-03-02T10:51:33;13.10;99.90
10964;DHT22;5534;48.784;9.190;2024-03-02T10:54:02;13.20;99.90
10964;DHT22;5534;48.784;9.190;2024-03-02T10:56:39;13.40;99.90
10964;DHT22;5534;48.784;9.190;2024-03-02T11:01:56;13.50;99.90
10964;DHT22;5534;48.784;9.190;2024-03-02T11:04:24;13.60;99.90
10964;DHT22;5534;48.784;9.190;2024-03-02T11:06:51;13.80;99.90
10964;DHT22;5534;48.784;9.190;2024-03-02T11:09:28;14.00;99.90
10964;DHT22;5534;48.784;9.190;2024-03-02T11:12:03;14.00;99.90
10964;DHT22;5534;48.784;9.190;2024-03-02T11:14:31;14.20;99.90
10964;DHT22;5534;48.784;9.190;2024-03-02T11:17:02;14.20;99.90
10964;DHT22;5534;48.784;9.190;2024-03-02T11:19:29;14.20;99.90
10964;DHT22;5534;48.784;9.190;2024-03-02T11:21:56;14.30;99.90
10964;DHT22;5534;48.784;9.190;2024-03-02T11:26:53;14.40;99.90
10964;DHT22;5534;48.784;9.190;2024-03-02T11:29:43;14.30;99.90
10964;DHT22;5534;48.784;9.190;2024-03-02T11:32:16;14.60;99.90
10964;DHT22;5534;48.784;9.190;2024-03-02T11:34:47;14.70;99.90
10964;DHT22;5534;48.784;9.190;2024-03-02T11:37:19;14.70;99.90
10964;DHT22;5534;48.784;9.190;2024-03-02T11:39:51;14.90;99.90
10964;DHT22;5534;48.784;9.190;2024-03-02T11:42:17;14.80;99.90
10964;DHT22;5534;48.784;9.190;2024-03-02T11:44:45;14.90;99.90
10964;DHT22;5534;48.784;9.190;2024-03-02T11:47:13;15.00;99.90
10964;DHT22;5534;48.784;9.190;2024-03-02T11:49:45;14.90;99.90
10964;DHT22;5534;48.784;9.190;2024-03-02T11:52:14;15.00;99.90
10964;DHT22;5534;48.784;9.190;2024-03-02T11:54:44;15.10;99.90
10964;DHT22;5534;48.784;9.190;2024-03-02T11:57:18;15.20;99.90
10964;DHT22;5534;48.784;9.190;2024-03-02T11:59:45;15.20;99.90
10964;DHT22;5534;48.784;9.190;2024-03-02T12:02:21;15.10;99.90
10964;DHT22;5534;48.784;9.190;2024-03-02T12:04:48;15.20;99.90
10964;DHT22;5534;48.784;9.190;2024-03-02T12:07:21;15.30;99.90
10964;DHT22;5534;48.784;9.190;2024-03-02T12:09:59;15.10;99.90
10964;DHT22;5534;48.784;9.190;2024-03-02T12:12:25;15.20;99.90
10964;DHT22;5534;48.784;9.190;2024-03-02T12:14:53;15.30;99.90
10964;DHT22;5534;48.784;9.190;2024-03-02T12:17:21;15.40;99.90
10964;DHT22;5534;48.784;9.190;2024-03-02T12:19:47;15.40;99.90
10964;DHT22;5534;48.784;9.190;2024-03-02T12:22:13;15.50;99.90
10964;DHT22;5534;48.784;9.190;2024-03-02T12:24:38;15.70;99.90
10964;DHT22;5534;48.784;9.190;2024-03-02T12:27:05;15.70;99.90
10964;DHT22;5534;48.784;9.190;2024-03-02T12:29:32;15.80;99.90
10964;DHT22;5534;48.784;9.190;2024-03-02T12:31:59;15.90;99.90
10964;DHT22;5534;48.784;9.190;2024-03-02T12:34:27;16.10;99.90
10964;DHT22;5534;48.784;9.190;2024-03-02T12:36:54;16.20;99.90
10964;DHT22;5534;48.784;9.190;2024-03-02T12:39:20;16.30;99.90
10964;DHT22;5534;48.784;9.190;2024-03-02T12:41:46;16.20;99.90
10964;DHT22;5534;48.784;9.190;2024-03-02T12:44:12;16.10;99.90
10964;DHT22;5534;48.784;9.190;2024-03-02T12:46:38;16.20;99.90
10964;DHT22;5534;48.784;9.190;2024-03-02T12:49:11;16.30;99.90
10964;DHT22;5534;48.784;9.190;2024-03-02T12:51:39;16.30;99.90
10964;DHT22;5534;48.784;9.190;2024-03-02T12:54:09;16.30;99.90
10964;DHT22;5534;48.784;9.190;2024-03-02T12:56:36;16.40;99.90
10964;DHT22;5534;48.784;9.190;2024-03-02T12:59:03;16.40;99.90
10964;DHT22;5534;48.784;9.190;2024-03-02T13:01:29;16.40;99.90
10964;DHT22;5534;48.784;9.190;2024-03-02T13:03:55;16.30;99.90
10964;DHT22;5534;48.784;9.190;2024-03-02T13:06:21;16.30;99.90
10964;DHT22;5534;48.784;9.190;2024-03-02T13:08:53;16.50;99.90
10964;DHT22;5534;48.784;9.190;2024-03-02T13:11:19;16.40;99.90
10964;DHT22;5534;48.784;9.190;2024-03-02T13:13:45;16.40;99.90
10964;DHT22;5534;48.784;9.190;2024-03-02T13:16:11;16.50;99.90
10964;DHT22;5534;48.784;9.190;2024-03-02T13:18:39;16.50;99.90
10964;DHT22;5534;48.784;9.190;2024-03-02T13:21:05;16.50;99.90
10964;DHT22;5534;48.784;9.190;2024-03-02T13:23:34;16.50;99.90
10964;DHT22;5534;48.784;9.190;2024-03-02T13:26:00;16.50;99.90
10964;DHT22;5534;48.784;9.190;2024-03-02T13:28:26;16.60;99.90
10964;DHT22;5534;48.784;9.190;2024-03-02T13:30:52;16.40;99.90
10964;DHT22;5534;48.784;9.190;2024-03-02T13:33:17;16.40;99.90
10964;DHT22;5534;48.784;9.190;2024-03-02T13:35:51;16.60;99.90
10964;DHT22;5534;48.784;9.190;2024-03-02T13:38:20;16.70;99.90
10964;DHT22;5534;48.784;9.190;2024-03-02T13:40:48;16.70;99.90
10964;DHT22;5534;48.784;9.190;2024-03-02T13:43:17;16.70;99.90
10964;DHT22;5534;48.784;9.190;2024-03-02T13:45:47;16.80;99.90
10964;DHT22;5534;48.784;9.190;2024-03-02T13:48:13;16.60;99.90
10964;DHT22;5534;48.784;9.190;2024-03-02T13:50:40;16.70;99.90
10964;DHT22;5534;48.784;9.190;2024-03-02T13:53:06;16.80;99.90
10964;DHT22;5534;48.784;9.190;2024-03-02T13:55:32;16.80;99.90
10964;DHT22;5534;48.784;9.190;2024-03-02T13:57:59;16.90;99.90
10964;DHT22;5534;48.784;9.190;2024-03-02T14:00:25;16.80;99.90
10964;DHT22;5534;48.784;9.190;2024-03-02T14:02:53;16.70;99.90
10964;DHT22;5534;48.784;9.190;2024-03-02T14:05:19;16.70;99.90
10964;DHT22;5534;48.784;9.190;2024-03-02T14:07:45;16.90;99.90
10964;DHT22;5534;48.784;9.190;2024-03-02T14:10:10;16.90;99.90
10964;DHT22;5534;48.784;9.190;2024-03-02T14:12:37;16.90;99.90
10964;DHT22;5534;48.784;9.190;2024-03-02T14:15:03;16.80;99.90
10964;DHT22;5534;48.784;9.190;2024-03-02T14:17:29;16.70;99.90
10964;DHT22;5534;48.784;9.190;2024-03-02T14:19:57;16.70;99.90
10964;DHT22;5534;48.784;9.190;2024-03-02T14:22:24;16.70;99.90
10964;DHT22;5534;48.784;9.190;2024-03-02T14:24:50;16.50;99.90
10964;DHT22;5534;48.784;9.190;2024-03-02T14:27:16;16.50;99.90
10964;DHT22;5534;48.784;9.190;2024-03-02T14:29:43;16.50;99.90
10964;DHT22;5534;48.784;9.190;2024-03-02T14:32:08;16.40;99.90
10964;DHT22;5534;48.784;9.190;2024-03-02T14:34:34;16.40;99.90
10964;DHT22;5534;48.784;9.190;2024-03-02T14:37:00;16.40;99.90
10964;DHT22;5534;48.784;9.190;2024-03-02T14:39:26;16.40;99.90
10964;DHT22;5534;48.784;9.190;2024-03-02T14:41:52;16.50;99.90
10964;DHT22;5534;48.784;9.190;2024-03-02T14:44:18;16.60;99.90
10964;DHT22;5534;48.784;9.190;2024-03-02T14:46:48;16.50;99.90
10964;DHT22;5534;48.784;9.190;2024-03-02T14:49:13;16.30;99.90
10964;DHT22;5534;48.784;9.190;2024-03-02T14:51:39;16.30;99.90
10964;DHT22;5534;48.784;9.190;2024-03-02T14:54:05;16.30;99.90
10964;DHT22;5534;48.784;9.190;2024-03-02T14:56:31;16.30;99.90
10964;DHT22;5534;48.784;9.190;2024-03-02T14:58:56;16.30;99.90
10964;DHT22;5534;48.784;9.190;2024-03-02T15:01:22;16.20;99.90
10964;DHT22;5534;48.784;9.190;2024-03-02T15:03:52;16.50;99.20
10964;DHT22;5534;48.784;9.190;2024-03-02T15:06:20;16.20;99.40
10964;DHT22;5534;48.784;9.190;2024-03-02T15:08:46;16.10;99.90
10964;DHT22;5534;48.784;9.190;2024-03-02T15:11:13;16.10;99.70
10964;DHT22;5534;48.784;9.190;2024-03-02T15:13:39;16.10;99.90
10964;DHT22;5534;48.784;9.190;2024-03-02T15:16:05;16.10;99.50
10964;DHT22;5534;48.784;9.190;2024-03-02T15:18:31;16.10;99.50
10964;DHT22;5534;48.784;9.190;2024-03-02T15:20:57;16.10;98.30
10964;DHT22;5534;48.784;9.190;2024-03-02T15:23:23;16.20;98.10
10964;DHT22;5534;48.784;9.190;2024-03-02T15:25:50;16.00;98.70
10964;DHT22;5534;48.784;9.190;2024-03-02T15:28:16;15.90;98.60
10964;DHT22;5534;48.784;9.190;2024-03-02T15:30:42;15.70;98.80
10964;DHT22;5534;48.784;9.190;2024-03-02T15:33:08;15.70;99.30
10964;DHT22;5534;48.784;9.190;2024-03-02T15:35:34;15.70;99.50
10964;DHT22;5534;48.784;9.190;2024-03-02T15:37:59;15.60;99.10
10964;DHT22;5534;48.784;9.190;2024-03-02T15:40:25;15.40;99.90
10964;DHT22;5534;48.784;9.190;2024-03-02T15:42:51;15.30;99.90
10964;DHT22;5534;48.784;9.190;2024-03-02T15:45:16;15.50;99.90
10964;DHT22;5534;48.784;9.190;2024-03-02T15:47:42;15.20;99.70
10964;DHT22;5534;48.784;9.190;2024-03-02T15:50:08;15.10;99.90
10964;DHT22;5534;48.784;9.190;2024-03-02T15:52:33;15.10;99.90
10964;DHT22;5534;48.784;9.190;2024-03-02T15:54:59;15.10;99.90
10964;DHT22;5534;48.784;9.190;2024-03-02T15:57:25;15.10;99.90
10964;DHT22;5534;48.784;9.190;2024-03-02T15:59:51;15.00;99.90